createdAt,value
2019-04-26T00:01:35.929Z,1.53
2019-04-26T00:04:04.374Z,3.90
2019-04-26T00:06:32.631Z,4.87
2019-04-26T00:09:05.555Z,4.93
2019-04-26T00:11:38.222Z,5.50
2019-04-26T00:17:01.249Z,4.07
2019-04-26T00:19:29.835Z,4.23
2019-04-26T00:21:58.301Z,5.53
2019-04-26T00:24:28.495Z,5.07
2019-04-26T00:26:57.091Z,3.67
2019-04-26T00:29:25.370Z,5.97
2019-04-26T00:31:53.830Z,2.70
2019-04-26T00:34:22.155Z,3.20
2019-04-26T00:36:50.447Z,3.50
2019-04-26T00:39:18.761Z,4.63
2019-04-26T00:41:47.116Z,2.60
2019-04-26T00:44:16.572Z,3.10
2019-04-26T00:46:44.898Z,3.40
2019-04-26T00:49:14.073Z,5.03
2019-04-26T00:51:43.281Z,2.73
2019-04-26T00:54:11.651Z,6.00
2019-04-26T00:56:39.978Z,3.77
2019-04-26T00:59:08.628Z,2.00
2019-04-26T01:01:38.592Z,3.73
2019-04-26T01:04:07.069Z,4.37
2019-04-26T01:06:36.991Z,5.47
2019-04-26T01:09:05.303Z,4.70
2019-04-26T01:11:33.585Z,6.77
2019-04-26T01:14:01.830Z,5.77
2019-04-26T01:16:30.101Z,5.23
2019-04-26T01:18:58.345Z,4.43
2019-04-26T01:21:27.499Z,5.37
2019-04-26T01:23:55.739Z,5.08
2019-04-26T01:26:36.227Z,7.90
2019-04-26T01:29:07.820Z,3.93
2019-04-26T01:31:50.917Z,5.90
2019-04-26T01:37:11.809Z,5.93
2019-04-26T01:39:42.054Z,4.23
2019-04-26T01:42:14.647Z,6.23
2019-04-26T01:44:45.544Z,5.80
2019-04-26T01:47:14.155Z,5.17
2019-04-26T01:49:42.402Z,5.13
2019-04-26T01:52:11.045Z,4.80
2019-04-26T01:54:42.922Z,3.73
2019-04-26T01:57:11.209Z,3.83
2019-04-26T01:59:42.736Z,3.93
2019-04-26T02:02:32.014Z,7.47
2019-04-26T02:05:02.003Z,6.08
2019-04-26T02:07:38.067Z,6.57
2019-04-26T02:10:14.918Z,5.10
2019-04-26T02:12:44.960Z,5.93
2019-04-26T02:15:13.285Z,4.93
2019-04-26T02:17:41.648Z,8.50
2019-04-26T02:20:10.005Z,4.33
2019-04-26T02:22:39.946Z,6.73
2019-04-26T02:25:08.246Z,4.23
2019-04-26T02:27:36.570Z,4.57
2019-04-26T02:30:07.255Z,6.80
2019-04-26T02:32:37.049Z,4.43
2019-04-26T02:35:06.600Z,4.93
2019-04-26T02:37:36.883Z,8.70
2019-04-26T02:40:11.086Z,8.70
2019-04-26T02:42:40.843Z,7.47
2019-04-26T02:45:22.677Z,7.22
2019-04-26T02:47:56.092Z,8.03
2019-04-26T02:50:36.294Z,8.03
2019-04-26T02:53:42.497Z,6.53
2019-04-26T02:56:13.375Z,6.83
2019-04-26T02:59:00.045Z,6.93
2019-04-26T03:01:31.264Z,9.47
2019-04-26T03:03:58.798Z,9.73
2019-04-26T03:06:27.114Z,8.23
2019-04-26T03:08:55.776Z,14.03
2019-04-26T03:11:26.412Z,9.67
2019-04-26T03:13:59.765Z,12.73
2019-04-26T03:16:35.163Z,8.33
2019-04-26T03:19:08.868Z,12.17
2019-04-26T03:21:40.507Z,6.50
2019-04-26T03:24:20.981Z,6.60
2019-04-26T03:26:58.449Z,7.03
2019-04-26T03:29:32.902Z,7.13
2019-04-26T03:32:40.822Z,8.83
2019-04-26T03:35:24.648Z,8.83
2019-04-26T03:38:12.739Z,8.80
2019-04-26T03:40:54.691Z,10.57
2019-04-26T03:43:43.168Z,9.37
2019-04-26T03:46:37.041Z,8.13
2019-04-26T03:49:11.613Z,8.33
2019-04-26T03:52:05.541Z,7.43
2019-04-26T03:54:35.526Z,7.30
2019-04-26T03:57:17.949Z,8.50
2019-04-26T03:59:56.790Z,8.70
2019-04-26T04:02:53.681Z,9.10
2019-04-26T04:05:29.504Z,11.73
2019-04-26T04:07:57.792Z,10.43
2019-04-26T04:10:32.026Z,8.93
2019-04-26T04:13:09.225Z,30.17
2019-04-26T04:16:01.273Z,14.13
2019-04-26T04:18:29.597Z,9.57
2019-04-26T04:21:11.581Z,7.57
2019-04-26T04:23:44.757Z,9.43
2019-04-26T04:26:13.645Z,9.20
2019-04-26T04:29:00.200Z,8.80
2019-04-26T04:31:42.173Z,8.40
2019-04-26T04:34:13.345Z,6.33
2019-04-26T04:36:46.909Z,6.23
2019-04-26T04:39:17.825Z,8.33
2019-04-26T04:42:11.616Z,8.17
2019-04-26T04:45:07.116Z,7.50
2019-04-26T04:47:55.422Z,8.97
2019-04-26T04:50:34.459Z,7.17
2019-04-26T04:53:14.665Z,5.97
2019-04-26T04:55:52.911Z,7.67
2019-04-26T04:58:24.426Z,13.73
2019-04-26T05:01:14.128Z,7.43
2019-04-26T05:06:51.806Z,7.03
2019-04-26T05:09:23.330Z,5.47
2019-04-26T05:12:00.775Z,7.23
2019-04-26T05:14:48.058Z,6.50
2019-04-26T05:17:43.043Z,6.53
2019-04-26T05:20:32.307Z,8.00
2019-04-26T05:23:26.273Z,7.50
2019-04-26T05:26:28.102Z,6.27
2019-04-26T05:29:09.854Z,7.80
2019-04-26T05:31:45.883Z,10.60
2019-04-26T05:34:30.383Z,8.03
2019-04-26T05:37:22.672Z,8.30
2019-04-26T05:40:06.005Z,6.20
2019-04-26T05:43:19.691Z,6.77
2019-04-26T05:45:58.163Z,8.00
2019-04-26T05:48:43.421Z,6.63
2019-04-26T05:51:38.833Z,9.03
2019-04-26T05:54:46.147Z,10.27
2019-04-26T05:57:41.880Z,5.67
2019-04-26T06:00:41.669Z,6.50
2019-04-26T06:06:10.918Z,7.40
2019-04-26T06:09:03.550Z,3.67
2019-04-26T06:12:05.246Z,3.17
2019-04-26T06:14:40.804Z,4.00
2019-04-26T06:17:34.274Z,2.40
2019-04-26T06:20:30.038Z,2.37
2019-04-26T06:23:10.214Z,3.00
2019-04-26T06:25:49.094Z,2.23
2019-04-26T06:28:26.452Z,3.02
2019-04-26T06:31:03.801Z,2.53
2019-04-26T06:33:35.440Z,2.07
2019-04-26T06:36:06.790Z,2.17
2019-04-26T06:39:02.140Z,1.90
2019-04-26T06:42:05.069Z,1.70
2019-04-26T06:44:58.355Z,1.27
2019-04-26T06:47:43.183Z,1.57
2019-04-26T06:50:45.764Z,1.03
2019-04-26T06:53:17.317Z,0.80
2019-04-26T06:56:11.249Z,2.17
2019-04-26T06:59:17.251Z,0.70
2019-04-26T07:01:51.532Z,0.73
2019-04-26T07:04:43.353Z,0.80
2019-04-26T07:07:20.482Z,1.70
2019-04-26T07:09:58.854Z,0.87
2019-04-26T07:12:37.697Z,0.40
2019-04-26T07:15:28.062Z,0.40
2019-04-26T07:18:06.328Z,1.67
2019-04-26T07:20:44.955Z,0.68
2019-04-26T07:23:41.984Z,0.40
2019-04-26T07:26:24.902Z,1.07
2019-04-26T07:29:29.873Z,0.73
2019-04-26T07:32:23.887Z,0.60
2019-04-26T07:35:13.814Z,0.63
2019-04-26T07:38:01.303Z,0.60
2019-04-26T07:40:57.544Z,2.57
2019-04-26T07:43:50.314Z,0.70
2019-04-26T07:46:39.783Z,0.67
2019-04-26T07:49:12.430Z,1.47
2019-04-26T07:52:18.696Z,0.60
2019-04-26T07:55:06.696Z,0.70
2019-04-26T07:57:47.013Z,0.40
2019-04-26T08:00:17.931Z,1.43
2019-04-26T08:03:13.008Z,0.50
2019-04-26T08:05:54.094Z,0.47
2019-04-26T08:08:24.506Z,0.53
2019-04-26T08:11:12.839Z,0.53
2019-04-26T08:14:06.209Z,0.40
2019-04-26T08:16:51.595Z,0.50
2019-04-26T08:19:21.387Z,0.40
2019-04-26T08:21:50.605Z,0.63
2019-04-26T08:24:21.492Z,0.75
2019-04-26T08:27:21.468Z,0.47
2019-04-26T08:29:44.533Z,0.50
2019-04-26T08:34:47.045Z,0.60
2019-04-26T08:40:08.660Z,0.50
2019-04-26T08:42:41.632Z,0.50
2019-04-26T08:45:27.781Z,2.13
2019-04-26T08:48:15.602Z,0.30
2019-04-26T08:50:45.940Z,0.30
2019-04-26T08:53:14.957Z,0.30
2019-04-26T08:55:43.370Z,0.50
2019-04-26T08:58:14.387Z,0.33
2019-04-26T09:00:45.283Z,0.30
2019-04-26T09:03:15.167Z,0.40
2019-04-26T09:05:51.421Z,0.20
2019-04-26T09:08:19.976Z,0.20
2019-04-26T09:10:48.694Z,0.30
2019-04-26T09:13:17.012Z,0.30
2019-04-26T09:16:06.901Z,0.27
2019-04-26T09:18:43.037Z,0.30
2019-04-26T09:21:05.172Z,0.40
2019-04-26T09:23:52.171Z,0.33
2019-04-26T09:32:11.897Z,0.20
2019-04-26T09:34:41.591Z,0.35
2019-04-26T09:37:11.221Z,0.37
2019-04-26T09:39:41.694Z,0.20
2019-04-26T09:42:12.083Z,0.40
2019-04-26T09:44:44.660Z,0.20
2019-04-26T09:47:17.456Z,0.37
2019-04-26T09:49:47.453Z,0.40
2019-04-26T09:52:17.352Z,1.23
2019-04-26T09:54:45.667Z,0.27
2019-04-26T09:57:13.896Z,0.27
2019-04-26T09:59:42.139Z,0.30
2019-04-26T10:02:11.182Z,0.20
2019-04-26T10:04:39.440Z,0.20
2019-04-26T10:07:07.737Z,1.00
2019-04-26T10:09:36.005Z,0.20
2019-04-26T10:12:05.925Z,0.20
2019-04-26T10:14:41.593Z,0.10
2019-04-26T10:17:17.485Z,0.47
2019-04-26T10:19:50.006Z,0.27
2019-04-26T10:22:18.287Z,0.50
2019-04-26T10:24:46.533Z,0.30
2019-04-26T10:27:14.809Z,0.90
2019-04-26T10:29:43.054Z,0.20
2019-04-26T10:32:11.333Z,0.27
2019-04-26T10:34:42.832Z,0.20
2019-04-26T10:37:09.590Z,0.33
2019-04-26T10:39:37.848Z,0.10
2019-04-26T10:42:06.120Z,0.10
2019-04-26T10:44:35.891Z,0.10
2019-04-26T10:47:05.995Z,0.53
2019-04-26T10:49:40.395Z,1.30
2019-04-26T10:52:11.928Z,0.47
2019-04-26T10:54:45.807Z,0.53
2019-04-26T10:57:17.088Z,0.97
2019-04-26T10:59:49.755Z,0.30
2019-04-26T11:02:19.200Z,1.23
2019-04-26T11:04:47.447Z,0.60
2019-04-26T11:07:15.723Z,0.13
2019-04-26T11:09:43.981Z,1.30
2019-04-26T11:12:13.738Z,0.30
2019-04-26T11:17:11.426Z,0.30
2019-04-26T11:19:39.691Z,0.67
2019-04-26T11:22:08.041Z,0.40
2019-04-26T11:24:36.281Z,0.20
2019-04-26T11:27:05.380Z,0.60
2019-04-26T11:29:34.520Z,0.23
2019-04-26T11:32:04.227Z,0.10
2019-04-26T11:34:32.633Z,0.70
2019-04-26T11:37:00.888Z,1.70
2019-04-26T11:39:29.146Z,2.10
2019-04-26T11:41:57.430Z,0.88
2019-04-26T11:44:27.569Z,6.00
2019-04-26T11:46:59.044Z,1.87
2019-04-26T11:49:26.511Z,1.67
2019-04-26T11:51:54.775Z,0.83
2019-04-26T11:54:23.032Z,1.50
2019-04-26T11:56:51.312Z,1.00
2019-04-26T11:59:19.565Z,0.83
2019-04-26T12:01:47.812Z,1.80
2019-04-26T12:04:33.835Z,0.97
2019-04-26T12:07:19.879Z,2.60
2019-04-26T12:09:49.757Z,0.50
2019-04-26T12:12:18.023Z,0.63
2019-04-26T12:14:46.317Z,1.17
2019-04-26T12:17:14.567Z,0.53
2019-04-26T12:19:42.849Z,0.80
2019-04-26T12:22:11.105Z,4.33
2019-04-26T12:24:39.378Z,2.83
2019-04-26T12:27:10.262Z,1.97
2019-04-26T12:29:37.622Z,1.50
2019-04-26T12:32:05.869Z,1.62
2019-04-26T12:34:34.146Z,0.67
2019-04-26T12:37:02.399Z,1.07
2019-04-26T12:39:32.324Z,0.73
2019-04-26T12:42:00.652Z,0.40
2019-04-26T12:44:32.198Z,3.30
2019-04-26T12:47:03.475Z,0.83
2019-04-26T12:49:32.267Z,0.23
2019-04-26T12:52:00.566Z,0.60
2019-04-26T12:54:28.875Z,0.40
2019-04-26T12:56:57.210Z,0.73
2019-04-26T12:59:26.556Z,1.10
2019-04-26T13:02:05.479Z,2.13
2019-04-26T13:04:35.519Z,0.30
2019-04-26T13:07:07.022Z,0.50
2019-04-26T13:09:37.450Z,2.03
2019-04-26T13:14:45.612Z,0.80
2019-04-26T13:17:24.436Z,1.00
2019-04-26T13:19:54.054Z,0.72
2019-04-26T13:22:22.694Z,0.60
2019-04-26T13:24:50.976Z,1.10
2019-04-26T13:27:19.251Z,0.80
2019-04-26T13:29:48.400Z,0.93
2019-04-26T13:32:17.536Z,1.20
2019-04-26T13:34:45.818Z,1.10
2019-04-26T13:37:14.090Z,1.50
2019-04-26T13:39:42.367Z,1.50
2019-04-26T13:42:18.654Z,0.87
2019-04-26T13:44:57.441Z,0.43
2019-04-26T13:47:36.424Z,0.80
2019-04-26T13:50:17.088Z,0.55
2019-04-26T13:52:45.374Z,0.47
2019-04-26T13:55:13.642Z,1.23
2019-04-26T13:57:44.609Z,0.90
2019-04-26T14:00:13.522Z,2.40
2019-04-26T14:02:41.772Z,0.63
2019-04-26T14:05:11.086Z,0.80
2019-04-26T14:07:40.019Z,0.80
2019-04-26T14:10:08.298Z,1.10
2019-04-26T14:12:36.543Z,0.87
2019-04-26T14:15:08.584Z,2.90
2019-04-26T14:17:36.141Z,2.43
2019-04-26T14:20:05.857Z,2.97
2019-04-26T14:25:15.070Z,1.33
2019-04-26T14:27:51.546Z,0.60
2019-04-26T14:30:21.063Z,2.33
2019-04-26T14:32:49.316Z,0.60
2019-04-26T14:35:17.629Z,1.97
2019-04-26T14:37:49.796Z,1.73
2019-04-26T14:40:17.837Z,1.60
2019-04-26T14:42:48.490Z,0.30
2019-04-26T14:45:23.348Z,0.50
2019-04-26T14:47:47.596Z,0.50
2019-04-26T14:50:16.560Z,0.20
2019-04-26T14:52:46.381Z,0.55
2019-04-26T14:57:46.857Z,0.30
2019-04-26T15:00:16.832Z,0.37
2019-04-26T15:05:46.284Z,1.73
2019-04-26T15:08:13.359Z,1.93
2019-04-26T15:10:46.644Z,0.40
2019-04-26T15:13:19.430Z,0.30
2019-04-26T15:15:45.872Z,0.30
2019-04-26T15:18:12.462Z,1.50
2019-04-26T15:20:40.748Z,0.67
2019-04-26T15:23:09.038Z,0.73
2019-04-26T15:25:37.312Z,0.40
2019-04-26T15:28:06.791Z,0.50
2019-04-26T15:30:43.195Z,0.63
2019-04-26T15:33:08.918Z,0.40
2019-04-26T15:35:35.870Z,0.30
2019-04-26T15:38:04.331Z,0.47
2019-04-26T15:40:37.983Z,0.30
2019-04-26T15:43:14.745Z,0.30
2019-04-26T15:45:42.736Z,0.60
2019-04-26T15:48:16.175Z,0.50
2019-04-26T15:50:48.451Z,0.33
2019-04-26T15:53:14.794Z,0.50
2019-04-26T15:55:43.634Z,0.65
2019-04-26T15:58:11.919Z,0.40
2019-04-26T16:00:40.241Z,1.90
2019-04-26T16:03:08.512Z,0.33
2019-04-26T16:05:36.943Z,0.53
2019-04-26T16:08:05.288Z,0.27
2019-04-26T16:10:38.065Z,0.40
2019-04-26T16:13:16.126Z,0.50
2019-04-26T16:15:33.684Z,0.27
2019-04-26T16:18:03.866Z,0.70
2019-04-26T16:20:38.017Z,0.43
2019-04-26T16:23:06.228Z,1.07
2019-04-26T16:25:34.443Z,0.53
2019-04-26T16:28:18.655Z,2.60
2019-04-26T16:30:48.543Z,1.37
2019-04-26T16:33:18.455Z,0.97
2019-04-26T16:35:46.706Z,2.23
2019-04-26T16:38:19.954Z,5.60
2019-04-26T16:40:52.167Z,7.63
2019-04-26T16:43:34.862Z,3.97
2019-04-26T16:45:48.363Z,0.70
2019-04-26T16:48:17.332Z,2.17
2019-04-26T16:50:46.687Z,0.70
2019-04-26T16:53:36.810Z,1.07
2019-04-26T16:55:52.289Z,0.60
2019-04-26T16:58:15.013Z,1.73
2019-04-26T17:00:51.579Z,0.50
2019-04-26T17:03:13.350Z,0.57
2019-04-26T17:05:48.504Z,2.43
2019-04-26T17:08:12.900Z,0.83
2019-04-26T17:13:10.411Z,1.20
2019-04-26T17:15:38.739Z,2.30
2019-04-26T17:18:07.032Z,0.53
2019-04-26T17:20:35.353Z,0.80
2019-04-26T17:23:05.267Z,4.60
2019-04-26T17:25:35.524Z,0.65
2019-04-26T17:28:03.877Z,1.77
2019-04-26T17:30:34.472Z,1.03
2019-04-26T17:33:02.964Z,1.20
2019-04-26T17:35:32.784Z,1.15
2019-04-26T17:40:36.158Z,5.70
2019-04-26T17:43:00.592Z,1.93
2019-04-26T17:45:30.542Z,2.77
2019-04-26T17:48:01.445Z,2.00
2019-04-26T17:50:30.946Z,2.50
2019-04-26T17:53:00.573Z,1.70
2019-04-26T17:55:31.820Z,1.40
2019-04-26T17:58:11.427Z,1.30
2019-04-26T18:00:45.341Z,1.57
2019-04-26T18:03:02.350Z,1.90
2019-04-26T18:05:44.926Z,1.50
2019-04-26T18:08:30.491Z,5.03
2019-04-26T18:10:30.728Z,8.00
2019-04-26T18:13:00.441Z,7.87
2019-04-26T18:18:04.131Z,2.47
2019-04-26T18:20:41.354Z,1.77
2019-04-26T18:23:15.453Z,1.80
2019-04-26T18:25:45.063Z,1.30
2019-04-26T18:28:14.582Z,1.80
2019-04-26T18:30:46.179Z,3.57
2019-04-26T18:33:13.445Z,2.27
2019-04-26T18:38:12.579Z,1.57
2019-04-26T18:40:59.014Z,3.17
2019-04-26T18:43:12.582Z,2.17
2019-04-26T18:45:42.814Z,3.43
2019-04-26T18:48:13.813Z,3.60
2019-04-26T18:50:42.018Z,5.20
2019-04-26T18:53:14.580Z,1.30
2019-04-26T18:55:44.960Z,1.50
2019-04-26T18:58:13.633Z,1.13
2019-04-26T19:00:43.702Z,1.20
2019-04-26T19:03:13.464Z,2.80
2019-04-26T19:05:43.184Z,1.43
2019-04-26T19:08:12.829Z,1.85
2019-04-26T19:10:43.556Z,1.43
2019-04-26T19:13:31.603Z,2.07
2019-04-26T19:16:06.390Z,2.60
2019-04-26T19:18:37.873Z,3.67
2019-04-26T19:21:16.783Z,3.37
2019-04-26T19:23:45.041Z,4.00
2019-04-26T19:26:14.041Z,8.70
2019-04-26T19:28:44.604Z,5.00
2019-04-26T19:31:12.999Z,5.13
2019-04-26T19:33:42.804Z,5.07
2019-04-26T19:36:12.351Z,4.67
2019-04-26T19:38:45.190Z,14.73
2019-04-26T19:41:11.955Z,7.30
2019-04-26T19:43:43.631Z,4.78
2019-04-26T19:46:12.928Z,5.47
2019-04-26T19:48:55.580Z,7.27
2019-04-26T19:51:27.091Z,5.17
2019-04-26T19:53:55.900Z,3.53
2019-04-26T19:56:28.783Z,2.60
2019-04-26T19:58:58.524Z,4.23
2019-04-26T20:01:27.011Z,2.37
2019-04-26T20:03:55.535Z,3.57
2019-04-26T20:06:26.661Z,2.40
2019-04-26T20:08:53.792Z,5.00
2019-04-26T20:11:22.064Z,5.17
2019-04-26T20:13:51.893Z,4.00
2019-04-26T20:16:22.189Z,4.00
2019-04-26T20:18:50.297Z,12.40
2019-04-26T20:21:18.572Z,4.00
2019-04-26T20:23:47.564Z,2.53
2019-04-26T20:26:15.985Z,2.25
2019-04-26T20:28:44.243Z,4.47
2019-04-26T20:31:16.852Z,4.80
2019-04-26T20:33:47.635Z,4.83
2019-04-26T20:36:15.104Z,3.57
2019-04-26T20:38:47.286Z,4.53
2019-04-26T20:41:15.067Z,3.00
2019-04-26T20:43:48.564Z,2.87
2019-04-26T20:46:15.507Z,3.17
2019-04-26T20:48:43.980Z,7.17
2019-04-26T20:51:12.266Z,9.08
2019-04-26T20:53:43.463Z,5.00
2019-04-26T20:56:16.245Z,5.73
2019-04-26T20:58:45.445Z,3.17
2019-04-26T21:01:14.137Z,3.07
2019-04-26T21:03:42.862Z,1.90
2019-04-26T21:06:11.913Z,1.55
2019-04-26T21:08:42.148Z,2.07
2019-04-26T21:11:11.157Z,2.23
2019-04-26T21:13:41.509Z,3.27
2019-04-26T21:16:14.383Z,1.37
2019-04-26T21:18:42.282Z,1.67
2019-04-26T21:21:10.473Z,2.02
2019-04-26T21:23:41.795Z,2.27
2019-04-26T21:26:29.395Z,2.43
2019-04-26T21:29:13.394Z,2.53
2019-04-26T21:31:45.561Z,1.13
2019-04-26T21:34:20.087Z,2.20
2019-04-26T21:36:58.523Z,1.30
2019-04-26T21:39:31.095Z,4.87
2019-04-26T21:42:01.020Z,1.43
2019-04-26T21:44:29.267Z,4.97
2019-04-26T21:46:58.964Z,2.85
2019-04-26T21:51:55.017Z,2.47
2019-04-26T21:54:24.923Z,2.17
2019-04-26T21:56:53.787Z,3.33
2019-04-26T21:59:22.157Z,1.27
2019-04-26T22:01:53.820Z,1.70
2019-04-26T22:04:20.617Z,2.97
2019-04-26T22:06:48.843Z,2.37
2019-04-26T22:09:34.982Z,2.07
2019-04-26T22:12:00.756Z,1.40
2019-04-26T22:14:34.147Z,3.17
2019-04-26T22:17:05.360Z,1.93
2019-04-26T22:19:53.387Z,2.63
2019-04-26T22:22:23.412Z,1.90
2019-04-26T22:24:55.496Z,3.13
2019-04-26T22:27:25.274Z,2.03
2019-04-26T22:29:55.107Z,2.80
2019-04-26T22:32:23.506Z,2.60
2019-04-26T22:34:53.730Z,3.10
2019-04-26T22:37:29.553Z,2.70
2019-04-26T22:39:51.758Z,3.93
2019-04-26T22:42:20.692Z,3.30
2019-04-26T22:44:50.617Z,1.75
2019-04-26T22:47:20.512Z,3.80
2019-04-26T22:49:48.857Z,3.37
2019-04-26T22:52:17.117Z,2.00
2019-04-26T22:54:46.773Z,1.60
2019-04-26T22:57:16.461Z,1.90
2019-04-26T22:59:49.867Z,2.92
2019-04-26T23:02:18.375Z,2.10
2019-04-26T23:04:45.516Z,1.47
2019-04-26T23:07:13.847Z,2.50
2019-04-26T23:09:47.456Z,2.47
2019-04-26T23:12:16.409Z,1.50
2019-04-26T23:14:48.190Z,1.90
2019-04-26T23:17:27.211Z,1.40
2019-04-26T23:20:02.999Z,2.33
2019-04-26T23:22:33.660Z,1.75
2019-04-26T23:25:03.156Z,2.30
2019-04-26T23:27:33.259Z,3.00
2019-04-26T23:30:01.413Z,1.70
2019-04-26T23:32:29.664Z,2.00
2019-04-26T23:34:58.333Z,2.43
2019-04-26T23:37:27.909Z,1.30
2019-04-26T23:39:56.197Z,1.70
2019-04-26T23:42:25.085Z,1.20
2019-04-26T23:44:53.506Z,1.12
2019-04-26T23:47:23.685Z,2.60
2019-04-26T23:49:53.821Z,4.30
2019-04-26T23:52:23.149Z,1.63
2019-04-26T23:54:53.017Z,2.83
2019-04-26T23:57:21.703Z,2.23
2019-04-26T23:59:51.081Z,1.47
